Time;durP1;ratioP1;P1;durP2;ratioP2;P2;SDS_P1;SDS_P2;PMS_P1;PMS_P2;Temp;Humidity;BMP_temperature;BMP_pressure;BME280_temperature;BME280_humidity;BME280_pressure;Samples;Min_cycle;Max_cycle;Signal;HPM_P1;HPM_P2
2023/06/20 00:00:33;;;;;;;6.25;4.35;;;;;;;25.20;44.72;101438.44;4998895;28;20042;-74
2023/06/20 00:02:59;;;;;;;5.95;4.47;;;;;;;25.21;44.70;101432.06;4994565;28;20041;-74
2023/06/20 00:05:24;;;;;;;6.07;4.70;;;;;;;25.20;44.85;101422.44;4992780;28;20049;-75
2023/06/20 00:07:50;;;;;;;6.30;4.65;;;;;;;25.19;44.56;101426.13;4993003;28;20050;-74
2023/06/20 00:10:15;;;;;;;6.35;4.55;;;;;;;25.18;44.89;101427.16;4991615;28;20051;-75
2023/06/20 00:12:41;;;;;;;7.47;4.65;;;;;;;25.17;44.93;101423.66;4996916;28;20401;-75
2023/06/20 00:15:07;;;;;;;8.02;4.70;;;;;;;25.16;44.68;101421.22;4992098;28;20046;-74
2023/06/20 00:17:34;;;;;;;7.05;4.85;;;;;;;25.18;44.93;101438.63;5001089;28;20063;-75
2023/06/20 00:20:00;;;;;;;5.28;4.43;;;;;;;25.16;44.89;101435.34;4992585;28;20042;-76
2023/06/20 00:22:25;;;;;;;6.10;4.65;;;;;;;25.17;44.81;101439.66;4991243;28;20046;-74
2023/06/20 00:24:51;;;;;;;7.00;4.95;;;;;;;25.16;44.86;101440.69;4995915;28;20046;-75
2023/06/20 00:27:16;;;;;;;7.35;4.80;;;;;;;25.17;44.85;101436.19;4991039;28;20049;-75
2023/06/20 00:29:42;;;;;;;7.43;5.18;;;;;;;25.15;44.73;101436.38;4991497;28;20049;-74
2023/06/20 00:32:07;;;;;;;7.75;5.30;;;;;;;25.13;44.75;101435.72;4991316;28;20046;-75
2023/06/20 00:34:33;;;;;;;7.40;5.40;;;;;;;25.16;44.86;101429.19;4992470;28;20038;-74
2023/06/20 00:36:58;;;;;;;6.07;4.72;;;;;;;25.14;44.73;101429.41;4992078;28;20049;-74
2023/06/20 00:39:23;;;;;;;7.90;4.82;;;;;;;25.15;45.06;101427.56;4976661;28;20038;-74
2023/06/20 00:41:49;;;;;;;6.57;5.18;;;;;;;25.15;44.81;101435.56;4993710;28;20038;-75
2023/06/20 00:44:14;;;;;;;7.80;5.00;;;;;;;25.14;44.67;101432.06;4975777;28;20038;-75
2023/06/20 00:46:41;;;;;;;6.15;4.85;;;;;;;25.13;44.99;101434.91;5001161;28;20193;-75
2023/06/20 00:49:10;;;;;;;5.93;4.65;;;;;;;25.12;44.90;101434.09;4980922;28;20041;-75
2023/06/20 00:51:37;;;;;;;6.80;4.50;;;;;;;25.11;45.16;101428.97;4999705;28;20038;-75
2023/06/20 00:54:03;;;;;;;7.43;5.20;;;;;;;25.13;44.76;101434.91;4979838;28;20472;-75
2023/06/20 00:56:29;;;;;;;6.22;4.78;;;;;;;25.12;45.10;101435.94;5003530;28;20034;-75
2023/06/20 00:58:55;;;;;;;7.43;4.90;;;;;;;25.14;45.05;101436.59;4994915;28;20065;-74
2023/06/20 01:01:21;;;;;;;6.05;4.80;;;;;;;25.13;44.83;101432.25;4980639;28;20117;-74
2023/06/20 01:03:52;;;;;;;7.95;5.40;;;;;;;25.13;45.10;101434.91;4992753;28;20042;-74
2023/06/20 01:06:33;;;;;;;5.60;4.90;;;;;;;25.09;45.06;101429.16;4994941;28;20508;-74
2023/06/20 01:09:08;;;;;;;6.75;4.70;;;;;;;25.09;44.95;101431.81;4994371;28;20069;-75
2023/06/20 01:11:50;;;;;;;6.50;4.93;;;;;;;25.08;44.92;101430.19;4995017;28;20538;-75
2023/06/20 01:14:34;;;;;;;6.47;4.90;;;;;;;25.07;44.96;101425.06;4994660;28;20097;-75
2023/06/20 01:17:24;;;;;;;6.10;4.63;;;;;;;25.08;45.20;101429.38;4998050;28;20149;-74
2023/06/20 01:20:03;;;;;;;7.82;4.85;;;;;;;25.06;45.01;101426.91;4976977;28;20088;-74
2023/06/20 01:22:50;;;;;;;6.43;4.95;;;;;;;25.07;44.87;101428.53;4995583;28;20052;-74
2023/06/20 01:25:31;;;;;;;7.25;4.78;;;;;;;25.04;44.94;101422.81;4994457;28;20076;-74
2023/06/20 01:28:26;;;;;;;6.10;4.95;;;;;;;25.05;45.00;101425.25;4995606;28;20054;-74
2023/06/20 01:31:19;;;;;;;6.65;4.63;;;;;;;24.99;44.93;101408.25;4993696;28;20133;-74
2023/06/20 01:33:48;;;;;;;6.15;4.60;;;;;;;25.06;45.07;101420.75;4990181;28;20046;-75
2023/06/20 01:36:15;;;;;;;5.53;4.57;;;;;;;25.05;45.03;101417.28;4962828;28;20034;-75
2023/06/20 01:38:44;;;;;;;6.50;4.50;;;;;;;25.05;44.92;101414.59;4993789;28;20038;-74
2023/06/20 01:41:14;;;;;;;6.07;4.72;;;;;;;25.04;44.94;101415.63;4976239;28;20038;-74
2023/06/20 01:43:40;;;;;;;6.32;4.78;;;;;;;25.03;44.88;101413.16;4972598;28;20105;-74
2023/06/20 01:46:07;;;;;;;6.72;5.25;;;;;;;25.03;45.02;101413.97;4975813;28;20034;-75
2023/06/20 01:48:36;;;;;;;6.38;4.90;;;;;;;25.03;44.98;101413.97;4994339;28;20045;-75
2023/06/20 01:51:03;;;;;;;7.93;5.47;;;;;;;24.98;44.86;101403.91;4996677;28;20038;-74
2023/06/20 01:53:34;;;;;;;7.73;5.20;;;;;;;25.03;45.12;101407.84;4974543;28;20058;-75
2023/06/20 01:56:01;;;;;;;5.75;4.57;;;;;;;25.03;44.98;101406.00;4978437;28;20396;-74
2023/06/20 01:58:29;;;;;;;7.53;5.47;;;;;;;25.00;45.15;101403.72;4992278;28;20122;-74
2023/06/20 02:00:57;;;;;;;6.25;4.30;;;;;;;25.03;45.18;101405.16;4992989;28;20038;-75
2023/06/20 02:03:30;;;;;;;6.20;4.88;;;;;;;25.02;45.18;101407.00;4979115;28;20066;-74
2023/06/20 02:05:57;;;;;;;6.80;5.07;;;;;;;24.97;45.17;101399.59;4999354;28;20625;-74
2023/06/20 02:08:25;;;;;;;6.07;4.60;;;;;;;24.99;45.14;101397.59;4991669;28;20034;-74
2023/06/20 02:10:52;;;;;;;6.78;5.18;;;;;;;25.02;45.08;101407.00;4996343;28;20052;-75
2023/06/20 02:13:22;;;;;;;7.47;4.78;;;;;;;25.00;45.19;101407.22;4991742;28;20070;-75
2023/06/20 02:15:52;;;;;;;7.15;5.15;;;;;;;24.93;45.25;101398.34;4978974;28;20066;-75
2023/06/20 02:18:18;;;;;;;5.57;4.60;;;;;;;24.99;44.85;101404.72;4995065;28;20405;-75
2023/06/20 02:20:48;;;;;;;6.72;5.10;;;;;;;24.92;45.03;101404.69;4977079;28;20041;-76
2023/06/20 02:23:15;;;;;;;6.25;4.72;;;;;;;24.99;45.04;101407.38;4978491;28;20046;-75
2023/06/20 02:25:45;;;;;;;6.40;5.00;;;;;;;24.94;45.31;101407.16;4968476;28;20042;-74
2023/06/20 02:28:13;;;;;;;6.30;5.03;;;;;;;24.97;45.27;101420.91;4992117;28;20032;-75
2023/06/20 02:30:40;;;;;;;6.23;4.60;;;;;;;24.98;45.08;101421.72;4981121;28;21587;-75
2023/06/20 02:33:07;;;;;;;6.07;4.82;;;;;;;24.96;44.99;101423.78;4993473;28;20038;-75
2023/06/20 02:35:33;;;;;;;6.72;5.07;;;;;;;24.91;45.09;101413.69;4987684;28;20038;-75
2023/06/20 02:38:01;;;;;;;7.10;5.18;;;;;;;24.94;45.31;101423.13;4990100;28;20034;-75
2023/06/20 02:40:27;;;;;;;7.07;5.07;;;;;;;24.94;45.26;101420.47;4978116;28;20038;-74
2023/06/20 02:42:52;;;;;;;6.65;5.20;;;;;;;24.93;44.92;101422.31;4978064;28;20108;-75
2023/06/20 02:45:20;;;;;;;7.05;4.97;;;;;;;24.97;45.02;101423.56;4997522;28;20038;-74
2023/06/20 02:48:02;;;;;;;8.27;4.88;;;;;;;24.96;44.94;101419.28;4995416;28;20042;-75
2023/06/20 02:50:41;;;;;;;6.82;5.13;;;;;;;24.95;45.43;101420.25;4996410;28;20034;-74
2023/06/20 02:53:30;;;;;;;6.13;4.97;;;;;;;24.95;45.20;101419.44;4992994;28;20058;-75
2023/06/20 02:56:00;;;;;;;6.60;4.80;;;;;;;24.94;45.25;101421.28;4972435;28;20046;-74
2023/06/20 02:58:27;;;;;;;7.00;5.43;;;;;;;24.94;45.16;101428.47;4993607;28;20033;-74
2023/06/20 03:00:57;;;;;;;8.43;5.55;;;;;;;24.93;45.26;101430.31;4979925;28;20038;-74
2023/06/20 03:03:25;;;;;;;6.70;4.97;;;;;;;24.93;44.97;101418.81;4994009;28;20128;-75
2023/06/20 03:05:58;;;;;;;6.93;4.90;;;;;;;24.95;44.99;101430.91;4993418;28;20038;-74
2023/06/20 03:08:27;;;;;;;7.70;5.05;;;;;;;24.93;45.22;101432.16;4990573;28;20048;-74
2023/06/20 03:10:54;;;;;;;6.30;5.07;;;;;;;24.94;45.26;101431.13;4973941;28;20073;-74
2023/06/20 03:13:21;;;;;;;6.65;4.80;;;;;;;24.93;45.15;101416.16;4989586;28;20109;-74
2023/06/20 03:15:50;;;;;;;;;;;;;;;24.93;45.23;101421.50;4976889;28;20401;-74
2023/06/20 03:18:18;;;;;;;7.38;4.82;;;;;;;24.92;45.24;101423.34;4976310;28;21058;-74
2023/06/20 03:20:48;;;;;;;5.63;4.60;;;;;;;24.92;45.02;101422.50;4959445;28;20049;-74
2023/06/20 03:23:15;;;;;;;7.22;5.68;;;;;;;24.90;45.28;101422.72;4976019;28;20038;-75
2023/06/20 03:25:41;;;;;;;6.55;4.78;;;;;;;24.87;45.30;101419.63;4959186;28;20026;-74
2023/06/20 03:28:07;;;;;;;6.55;5.22;;;;;;;24.91;44.95;101421.69;4992915;28;20050;-74
2023/06/20 03:30:34;;;;;;;7.30;5.30;;;;;;;24.92;45.06;101419.84;4974637;28;20034;-75
2023/06/20 03:33:00;;;;;;;7.30;5.03;;;;;;;24.92;45.37;101422.50;4980736;28;20053;-75
2023/06/20 03:35:26;;;;;;;6.63;5.00;;;;;;;24.89;45.24;101417.59;4990081;28;20065;-75
2023/06/20 03:37:54;;;;;;;7.65;5.13;;;;;;;24.90;45.19;101417.38;4974065;28;20042;-75
2023/06/20 03:40:19;;;;;;;6.20;4.75;;;;;;;24.91;45.25;101418.19;4992478;28;20499;-75
2023/06/20 03:42:48;;;;;;;6.10;5.20;;;;;;;24.89;45.13;101413.06;4976138;28;20074;-74
2023/06/20 03:45:14;;;;;;;5.78;5.10;;;;;;;24.91;45.34;101418.19;4974879;28;20033;-75
2023/06/20 03:47:41;;;;;;;6.97;5.53;;;;;;;24.89;45.08;101414.91;4974131;28;20046;-75
2023/06/20 03:50:07;;;;;;;7.13;4.80;;;;;;;24.88;45.19;101408.78;4958559;28;20034;-74
2023/06/20 03:52:33;;;;;;;7.43;5.50;;;;;;;24.87;45.38;101409.78;4995282;28;20038;-74
2023/06/20 03:54:59;;;;;;;6.32;4.75;;;;;;;24.87;44.96;101412.47;4975710;28;20037;-75
2023/06/20 03:57:25;;;;;;;6.45;5.32;;;;;;;24.90;45.17;101403.25;4976294;28;20059;-75
2023/06/20 03:59:52;;;;;;;6.82;5.15;;;;;;;24.90;45.24;101397.91;4977313;28;20054;-75
2023/06/20 04:02:17;;;;;;;7.15;5.15;;;;;;;24.90;45.12;101401.41;4957486;28;20049;-75
2023/06/20 04:04:49;;;;;;;6.68;5.30;;;;;;;24.90;45.14;101405.91;4990285;28;20026;-75
2023/06/20 04:07:18;;;;;;;7.18;5.38;;;;;;;24.90;45.21;101403.25;4991152;28;20049;-74
2023/06/20 04:09:50;;;;;;;7.38;5.30;;;;;;;24.88;45.36;101399.97;4951310;28;20037;-74
2023/06/20 04:12:16;;;;;;;9.18;5.70;;;;;;;24.88;45.39;101400.78;4995727;28;20049;-75
2023/06/20 04:14:42;;;;;;;8.43;5.35;;;;;;;24.87;45.15;101393.81;4976059;28;20106;-75
2023/06/20 04:17:07;;;;;;;6.50;5.32;;;;;;;24.82;45.01;101388.28;4993820;28;20269;-74
2023/06/20 04:19:36;;;;;;;6.85;5.38;;;;;;;24.85;45.10;101395.03;4974954;28;20046;-74
2023/06/20 04:22:01;;;;;;;6.50;5.13;;;;;;;24.87;45.19;101398.31;4972320;28;20053;-74
2023/06/20 04:24:27;;;;;;;5.82;4.68;;;;;;;24.87;45.25;101403.66;4974018;28;20096;-75
2023/06/20 04:26:54;;;;;;;6.47;5.32;;;;;;;24.87;45.26;101391.16;4969079;28;20042;-75
2023/06/20 04:29:20;;;;;;;7.18;5.65;;;;;;;24.86;45.16;101399.34;4978347;28;20031;-75
2023/06/20 04:31:47;;;;;;;6.70;5.13;;;;;;;24.89;45.11;101401.59;4979406;28;20522;-75
2023/06/20 04:34:12;;;;;;;6.75;5.22;;;;;;;24.83;44.93;101392.56;4978363;28;20346;-75
2023/06/20 04:36:39;;;;;;;7.22;5.15;;;;;;;24.89;45.28;101396.28;4974099;28;20049;-75
2023/06/20 04:39:07;;;;;;;6.68;5.45;;;;;;;24.88;45.30;101392.78;4974157;28;20054;-75
2023/06/20 04:41:33;;;;;;;8.02;5.28;;;;;;;24.88;45.32;101392.78;4974777;28;20043;-75
2023/06/20 04:44:00;;;;;;;8.23;5.55;;;;;;;24.90;45.26;101389.91;4973730;28;20085;-76
2023/06/20 04:46:26;;;;;;;6.78;5.25;;;;;;;24.89;45.11;101385.63;4996186;28;20037;-75
2023/06/20 04:48:52;;;;;;;6.50;4.90;;;;;;;24.89;45.21;101385.63;4976637;28;20038;-75
2023/06/20 04:51:18;;;;;;;6.53;5.03;;;;;;;24.88;44.94;101387.47;4993126;28;20098;-75
2023/06/20 04:53:43;;;;;;;7.43;5.43;;;;;;;24.90;45.00;101384.59;4990224;28;20042;-74
2023/06/20 04:56:09;;;;;;;6.97;5.00;;;;;;;24.89;44.99;101385.63;4995855;28;20030;-74
2023/06/20 04:58:34;;;;;;;6.63;5.20;;;;;;;24.90;45.10;101384.59;4974665;28;20033;-74
2023/06/20 05:01:00;;;;;;;7.25;5.57;;;;;;;24.88;45.14;101379.47;4994310;28;20057;-74
2023/06/20 05:03:27;;;;;;;7.25;5.32;;;;;;;24.91;44.91;101387.06;4987268;28;20117;-74
2023/06/20 05:05:53;;;;;;;6.22;5.13;;;;;;;24.92;45.22;101380.72;4974539;28;20038;-75
2023/06/20 05:08:19;;;;;;;7.20;5.78;;;;;;;24.90;44.91;101373.94;4990486;28;20721;-74
2023/06/20 05:10:46;;;;;;;8.20;5.38;;;;;;;24.91;45.07;101380.91;4975017;28;20050;-75
2023/06/20 05:13:11;;;;;;;8.20;5.57;;;;;;;24.92;45.02;101383.38;4990446;28;20491;-75
2023/06/20 05:15:37;;;;;;;6.80;5.35;;;;;;;24.91;44.81;101375.56;4989218;28;20042;-75
2023/06/20 05:18:02;;;;;;;7.10;5.38;;;;;;;24.91;44.96;101380.91;4972256;28;20042;-75
2023/06/20 05:20:28;;;;;;;7.72;5.68;;;;;;;24.89;45.08;101378.44;4974800;28;20074;-75
2023/06/20 05:22:53;;;;;;;6.40;5.25;;;;;;;24.86;45.25;101375.38;4977568;28;20045;-75
2023/06/20 05:25:19;;;;;;;7.40;5.28;;;;;;;24.90;45.10;101373.94;4993890;28;20037;-74
2023/06/20 05:27:47;;;;;;;7.80;5.70;;;;;;;24.89;45.19;101375.78;4989277;28;20038;-74
2023/06/20 05:30:12;;;;;;;7.47;5.70;;;;;;;24.90;45.13;101377.44;4995750;28;20567;-75
2023/06/20 05:32:38;;;;;;;6.30;5.53;;;;;;;24.91;44.96;101376.41;4995875;28;20050;-74
2023/06/20 05:35:07;;;;;;;8.13;5.70;;;;;;;24.89;45.17;101373.13;4993099;28;20073;-74
2023/06/20 05:37:33;;;;;;;6.60;5.30;;;;;;;24.89;44.96;101374.97;4996065;28;21319;-75
2023/06/20 05:39:59;;;;;;;8.07;5.75;;;;;;;24.88;45.00;101381.31;4997104;28;20108;-75
2023/06/20 05:42:25;;;;;;;7.93;5.63;;;;;;;24.89;44.96;101373.13;4995475;28;20567;-74
2023/06/20 05:44:51;;;;;;;8.35;5.30;;;;;;;24.89;45.10;101377.63;5000137;28;20079;-74
2023/06/20 05:47:20;;;;;;;6.53;5.47;;;;;;;24.87;45.25;101369.00;4974606;28;20069;-74
2023/06/20 05:49:47;;;;;;;8.95;6.07;;;;;;;24.92;44.90;101377.22;4993936;28;20046;-74
2023/06/20 05:52:12;;;;;;;6.10;5.28;;;;;;;24.91;45.20;101373.72;4992416;28;20121;-75
2023/06/20 05:54:38;;;;;;;9.38;5.72;;;;;;;24.91;45.00;101372.91;4997499;28;20077;-74
2023/06/20 05:57:05;;;;;;;7.20;5.25;;;;;;;24.91;44.74;101373.72;4994001;28;20042;-75
2023/06/20 05:59:31;;;;;;;6.07;4.70;;;;;;;24.92;44.86;101375.38;4977932;28;20047;-76
2023/06/20 06:01:57;;;;;;;6.97;5.28;;;;;;;24.94;44.97;101388.50;4993742;28;20128;-74
2023/06/20 06:04:22;;;;;;;6.65;5.45;;;;;;;24.89;44.86;101374.97;4998546;28;20050;-74
2023/06/20 06:06:48;;;;;;;6.85;5.28;;;;;;;24.88;44.97;101375.97;4992553;28;20049;-74
2023/06/20 06:09:15;;;;;;;7.07;5.65;;;;;;;24.95;44.71;101392.81;4994790;28;20069;-74
2023/06/20 06:11:40;;;;;;;6.60;5.30;;;;;;;24.93;44.87;101382.34;4992413;28;20042;-74
2023/06/20 06:14:06;;;;;;;9.55;5.50;;;;;;;24.96;44.91;101386.47;4994025;28;20042;-75
2023/06/20 06:16:31;;;;;;;6.70;5.32;;;;;;;24.96;44.78;101392.63;4996341;28;20038;-75
2023/06/20 06:18:57;;;;;;;7.00;5.45;;;;;;;24.95;44.89;101388.28;4998941;28;20051;-75
2023/06/20 06:21:22;;;;;;;7.38;5.80;;;;;;;24.95;45.00;101382.97;4997683;28;20437;-74
2023/06/20 06:23:48;;;;;;;7.55;5.88;;;;;;;24.97;44.84;101385.47;4995784;28;20038;-74
2023/06/20 06:26:14;;;;;;;6.47;5.43;;;;;;;24.98;44.87;101371.94;4996756;28;20038;-74
2023/06/20 06:28:40;;;;;;;6.85;5.13;;;;;;;24.97;44.85;101370.28;4991361;28;20053;-74
2023/06/20 06:31:10;;;;;;;6.95;5.43;;;;;;;24.98;44.69;101360.44;4990814;28;20114;-75
2023/06/20 06:33:37;;;;;;;8.00;6.03;;;;;;;25.02;44.50;101355.56;4996386;28;20476;-75
2023/06/20 06:36:04;;;;;;;7.70;5.35;;;;;;;25.03;44.75;101367.88;4994756;28;20042;-76
2023/06/20 06:38:29;;;;;;;7.03;5.20;;;;;;;25.03;44.73;101362.53;4995260;28;20042;-75
2023/06/20 06:40:55;;;;;;;7.60;5.80;;;;;;;25.07;44.39;101369.09;4991896;28;20052;-75
2023/06/20 06:43:21;;;;;;;6.35;5.05;;;;;;;25.03;44.61;101363.34;4994782;28;20370;-75
2023/06/20 06:45:49;;;;;;;6.55;5.45;;;;;;;25.08;44.77;101378.72;4976734;28;20022;-75
2023/06/20 06:48:14;;;;;;;6.82;5.55;;;;;;;25.07;44.57;101369.91;4974671;28;20034;-75
2023/06/20 06:50:40;;;;;;;7.57;5.40;;;;;;;25.08;44.69;101360.09;4976849;28;20073;-74
2023/06/20 06:53:05;;;;;;;7.28;5.90;;;;;;;25.08;44.55;101360.91;4993927;28;20103;-72
2023/06/20 06:55:31;;;;;;;9.02;5.55;;;;;;;25.10;44.82;101364.19;4988258;28;20069;-72
2023/06/20 06:57:57;;;;;;;8.10;6.10;;;;;;;25.08;44.69;101365.41;4992335;28;20097;-72
2023/06/20 07:00:23;;;;;;;7.53;5.50;;;;;;;25.13;44.35;101369.09;4987532;28;20054;-75
2023/06/20 07:02:48;;;;;;;7.57;5.45;;;;;;;25.16;44.46;101367.91;4992125;28;20047;-74
2023/06/20 07:05:14;;;;;;;7.10;5.63;;;;;;;25.13;44.60;101354.97;4974521;28;20105;-74
2023/06/20 07:07:39;;;;;;;6.88;4.95;;;;;;;25.14;44.59;101365.44;4998110;28;20117;-74
2023/06/20 07:10:06;;;;;;;7.03;5.50;;;;;;;25.20;44.48;101363.81;4984060;28;20097;-74
2023/06/20 07:12:31;;;;;;;7.88;5.78;;;;;;;25.21;44.47;101365.44;4990035;28;20042;-74
2023/06/20 07:14:57;;;;;;;7.70;5.75;;;;;;;25.20;44.60;101361.13;4988714;28;20794;-74
2023/06/20 07:17:26;;;;;;;7.28;5.68;;;;;;;25.12;44.77;101348.81;4971802;28;20053;-73
2023/06/20 07:19:52;;;;;;;8.05;6.13;;;;;;;25.22;44.79;101361.75;4988672;28;20729;-73
2023/06/20 07:22:19;;;;;;;7.30;5.60;;;;;;;25.22;44.64;101359.09;4990226;28;20034;-73
2023/06/20 07:24:44;;;;;;;7.05;5.53;;;;;;;25.19;44.66;101355.00;4975438;28;20081;-73
2023/06/20 07:27:10;;;;;;;7.57;5.70;;;;;;;25.23;44.83;101364.22;4990046;28;20125;-73
2023/06/20 07:29:36;;;;;;;8.00;6.50;;;;;;;25.23;44.82;101366.06;4992977;28;20676;-73
2023/06/20 07:32:02;;;;;;;7.30;5.90;;;;;;;25.22;44.84;101365.25;4990185;28;20061;-74
2023/06/20 07:34:28;;;;;;;8.55;6.18;;;;;;;25.23;44.63;101356.22;4994930;28;20052;-73
2023/06/20 07:36:53;;;;;;;7.28;5.57;;;;;;;25.25;44.75;101364.00;4993068;28;20393;-73
2023/06/20 07:39:19;;;;;;;7.53;5.75;;;;;;;25.21;44.99;101338.78;4987949;28;20027;-73
2023/06/20 07:41:45;;;;;;;8.32;5.90;;;;;;;25.25;45.02;101346.16;4992878;28;20034;-74
2023/06/20 07:44:10;;;;;;;6.95;5.68;;;;;;;25.24;44.75;101331.22;4991934;28;20050;-74
2023/06/20 07:46:39;;;;;;;7.63;6.38;;;;;;;25.29;44.72;101328.75;4987340;28;20061;-73
2023/06/20 07:49:06;;;;;;;7.10;5.90;;;;;;;25.30;44.50;101330.38;4991357;28;20160;-73
2023/06/20 07:51:33;;;;;;;8.55;6.20;;;;;;;25.30;44.56;101325.06;4989933;28;20043;-74
2023/06/20 07:54:02;;;;;;;7.70;5.72;;;;;;;25.26;44.52;101320.34;4989012;28;20045;-73
2023/06/20 07:56:28;;;;;;;8.73;6.20;;;;;;;25.32;44.73;101330.22;4990227;28;20053;-74
2023/06/20 07:58:53;;;;;;;8.77;6.82;;;;;;;25.31;44.80;101331.19;4990616;28;20034;-74
2023/06/20 08:01:19;;;;;;;7.32;5.93;;;;;;;25.32;44.74;101340.03;4991136;28;20038;-74
2023/06/20 08:03:44;;;;;;;7.60;6.18;;;;;;;25.32;44.95;101332.88;4992252;28;20038;-74
2023/06/20 08:06:10;;;;;;;9.15;6.38;;;;;;;25.29;45.08;101333.25;4997498;28;20045;-74
2023/06/20 08:08:36;;;;;;;9.23;6.60;;;;;;;25.31;44.99;101336.53;4990956;28;21398;-74
2023/06/20 08:11:03;;;;;;;8.65;7.25;;;;;;;25.31;44.70;101328.53;4966955;28;20042;-73
2023/06/20 08:13:29;;;;;;;8.18;6.07;;;;;;;25.30;45.08;101333.03;4990717;28;20185;-73
2023/06/20 08:15:55;;;;;;;10.10;6.53;;;;;;;25.31;45.17;101333.88;4982009;28;20076;-74
2023/06/20 08:18:20;;;;;;;8.35;6.72;;;;;;;25.27;44.98;101322.78;4987754;28;20041;-74
2023/06/20 08:20:47;;;;;;;7.95;5.80;;;;;;;25.30;44.92;101318.91;4972499;28;20755;-74
2023/06/20 08:23:13;;;;;;;8.63;6.70;;;;;;;25.29;45.44;101307.41;4993057;28;21763;-73
2023/06/20 08:25:39;;;;;;;7.95;6.25;;;;;;;25.25;44.98;101303.53;4990399;28;20034;-74
2023/06/20 08:28:04;;;;;;;7.45;6.15;;;;;;;25.29;45.03;101304.75;4988336;28;20045;-74
2023/06/20 08:30:30;;;;;;;8.55;6.72;;;;;;;25.30;45.35;101308.22;4984560;28;20054;-74
2023/06/20 08:32:56;;;;;;;8.48;6.32;;;;;;;25.30;44.99;101301.06;4986908;28;20049;-74
2023/06/20 08:35:21;;;;;;;8.98;6.30;;;;;;;25.30;45.29;101294.91;4988411;28;20049;-73
2023/06/20 08:37:48;;;;;;;9.50;6.38;;;;;;;25.30;45.36;101294.91;4991260;28;20038;-73
2023/06/20 08:40:14;;;;;;;9.00;5.85;;;;;;;25.30;45.45;101293.06;4990750;28;20477;-72
2023/06/20 08:42:42;;;;;;;8.55;6.07;;;;;;;25.30;45.29;101293.06;4982884;28;20046;-73
2023/06/20 08:45:09;;;;;;;10.05;6.93;;;;;;;25.31;45.08;101299.22;4987027;28;20035;-73
2023/06/20 08:47:34;;;;;;;8.15;6.30;;;;;;;25.28;45.10;101294.28;4985925;28;20026;-74
2023/06/20 08:50:00;;;;;;;7.88;6.13;;;;;;;25.32;45.02;101297.41;4989655;28;20752;-74
2023/06/20 08:52:29;;;;;;;7.00;5.68;;;;;;;25.33;45.35;101297.19;4991666;28;20507;-74
2023/06/20 08:54:55;;;;;;;7.65;5.82;;;;;;;25.34;45.33;101295.34;4991860;28;20124;-75
2023/06/20 08:57:21;;;;;;;8.75;5.90;;;;;;;25.32;45.01;101290.22;4995410;28;20034;-75
2023/06/20 08:59:47;;;;;;;7.70;6.32;;;;;;;25.34;45.14;101296.16;4988761;28;20054;-74
2023/06/20 09:02:13;;;;;;;8.20;5.90;;;;;;;25.37;45.17;101292.25;4975353;28;20042;-74
2023/06/20 09:04:38;;;;;;;8.23;6.60;;;;;;;25.35;44.83;101287.13;4992192;28;20034;-76
2023/06/20 09:07:22;;;;;;;7.88;6.03;;;;;;;25.28;45.07;101270.31;4992470;28;20489;-76
2023/06/20 09:09:48;;;;;;;7.93;6.47;;;;;;;25.38;45.27;101284.06;4993231;28;20062;-75
2023/06/20 09:12:15;;;;;;;8.55;6.07;;;;;;;25.38;44.87;101289.38;4975902;28;20042;-76
2023/06/20 09:14:40;;;;;;;6.35;5.45;;;;;;;25.36;45.19;101287.97;4995069;28;20049;-75
2023/06/20 09:17:08;;;;;;;7.78;5.90;;;;;;;25.38;44.81;101285.91;4995750;28;20038;-75
2023/06/20 09:19:43;;;;;;;7.53;6.10;;;;;;;25.39;44.85;101287.53;4994442;28;20050;-75
2023/06/20 09:22:16;;;;;;;6.68;5.47;;;;;;;25.39;44.83;101293.69;4994584;28;20121;-74
2023/06/20 09:24:44;;;;;;;6.72;5.93;;;;;;;25.40;44.98;101291.84;4995165;28;20049;-74
2023/06/20 09:27:10;;;;;;;6.95;5.85;;;;;;;25.40;44.71;101289.19;4993478;28;20053;-74
2023/06/20 09:29:52;;;;;;;8.95;6.55;;;;;;;25.34;44.82;101279.34;4998625;28;20045;-74
2023/06/20 09:32:20;;;;;;;6.88;5.72;;;;;;;25.41;44.71;101288.97;4992296;28;20057;-75
2023/06/20 09:34:46;;;;;;;6.97;5.43;;;;;;;25.40;44.92;101276.66;4994657;28;20061;-74
2023/06/20 09:37:14;;;;;;;9.27;6.15;;;;;;;25.42;44.99;101284.47;4995877;28;20042;-74
2023/06/20 09:39:40;;;;;;;6.72;5.90;;;;;;;25.44;44.99;101285.06;4998762;28;20042;-74
2023/06/20 09:42:13;;;;;;;7.35;6.20;;;;;;;25.44;45.01;101282.41;4995327;28;20065;-75
2023/06/20 09:44:42;;;;;;;8.30;6.00;;;;;;;25.46;45.01;101283.00;4994946;28;20037;-75
2023/06/20 09:47:08;;;;;;;6.13;5.50;;;;;;;25.49;44.78;101296.75;4990009;28;20043;-74
2023/06/20 09:49:39;;;;;;;8.50;5.68;;;;;;;25.49;44.77;101286.09;4992803;28;20137;-74
2023/06/20 09:52:14;;;;;;;7.25;6.07;;;;;;;25.49;44.45;101296.75;4996853;28;20046;-73
2023/06/20 09:54:43;;;;;;;6.60;5.32;;;;;;;25.50;44.48;101287.75;4995123;28;20486;-73
2023/06/20 09:57:15;;;;;;;7.45;6.38;;;;;;;25.48;44.50;101281.78;4993058;28;20106;-73
2023/06/20 09:59:42;;;;;;;7.65;5.38;;;;;;;25.52;44.55;101282.22;4974994;28;20153;-72
2023/06/20 10:02:09;;;;;;;7.25;5.78;;;;;;;25.50;44.86;101279.75;4995173;28;20037;-73
2023/06/20 10:04:42;;;;;;;6.55;5.50;;;;;;;25.53;44.79;101266.00;4993849;28;20031;-76
2023/06/20 10:07:12;;;;;;;8.07;6.35;;;;;;;25.52;44.76;101261.69;4995867;28;20073;-76
2023/06/20 10:09:40;;;;;;;6.97;6.28;;;;;;;25.54;44.64;101269.50;4993300;28;20049;-76
2023/06/20 10:12:07;;;;;;;6.47;5.75;;;;;;;25.55;44.48;101268.47;4994231;28;20108;-75
2023/06/20 10:14:33;;;;;;;7.32;5.30;;;;;;;25.56;44.64;101270.09;4975090;28;20045;-74
2023/06/20 10:17:06;;;;;;;7.35;5.80;;;;;;;25.58;44.40;101268.84;4992655;28;20034;-75
2023/06/20 10:19:47;;;;;;;6.75;5.90;;;;;;;25.59;44.38;101267.81;4993363;28;20050;-74
2023/06/20 10:22:13;;;;;;;7.97;5.57;;;;;;;25.59;44.76;101256.34;4993856;28;20039;-73
2023/06/20 10:24:40;;;;;;;7.22;5.32;;;;;;;25.59;44.61;101251.81;4994310;28;20053;-75
2023/06/20 10:27:07;;;;;;;6.85;5.63;;;;;;;25.59;44.78;101243.81;4994072;28;20058;-75
2023/06/20 10:29:41;;;;;;;6.65;5.55;;;;;;;25.57;44.73;101245.06;4993766;28;20038;-75
2023/06/20 10:32:09;;;;;;;8.93;5.97;;;;;;;25.61;44.67;101238.28;4998194;28;20049;-75
2023/06/20 10:34:40;;;;;;;7.38;6.40;;;;;;;25.60;44.63;101240.13;4993357;28;20050;-74
2023/06/20 10:37:13;;;;;;;6.85;5.70;;;;;;;25.62;44.75;101250.59;4991919;28;20038;-75
2023/06/20 10:39:50;;;;;;;6.75;5.40;;;;;;;25.62;44.48;101237.25;4994490;28;20133;-74
2023/06/20 10:42:35;;;;;;;8.68;6.32;;;;;;;25.63;44.72;101224.75;4992847;28;20473;-74
2023/06/20 10:45:21;;;;;;;6.32;5.50;;;;;;;25.63;44.58;101222.88;4989866;28;20591;-75
2023/06/20 10:47:50;;;;;;;7.72;6.07;;;;;;;25.64;44.39;101223.72;4991601;28;20053;-74
2023/06/20 10:50:16;;;;;;;6.43;5.25;;;;;;;25.64;44.72;101221.03;4975165;28;20049;-73
2023/06/20 10:52:42;;;;;;;6.82;5.95;;;;;;;25.63;44.80;101216.75;4994537;28;20029;-73
2023/06/20 10:55:27;;;;;;;6.20;5.55;;;;;;;25.62;44.42;101213.25;4993374;28;22048;-73
2023/06/20 10:57:54;;;;;;;7.40;6.05;;;;;;;25.63;44.77;101214.06;4995447;28;20049;-73
2023/06/20 11:00:21;;;;;;;7.45;5.18;;;;;;;25.63;44.33;101211.41;4992623;28;20057;-73
2023/06/20 11:02:49;;;;;;;6.80;5.60;;;;;;;25.64;44.31;101203.19;4995588;28;20038;-74
2023/06/20 11:05:14;;;;;;;6.95;5.40;;;;;;;25.65;44.35;101207.50;4993515;28;20105;-75
2023/06/20 11:07:51;;;;;;;7.88;5.78;;;;;;;25.63;44.34;101188.22;4971744;28;20038;-75
2023/06/20 11:10:20;;;;;;;6.38;5.50;;;;;;;25.67;44.75;101192.09;4990058;28;20047;-75
2023/06/20 11:12:45;;;;;;;6.88;5.28;;;;;;;25.67;44.75;101188.63;4984681;28;20046;-75
2023/06/20 11:15:28;;;;;;;6.97;5.28;;;;;;;25.65;44.39;101180.81;4976101;28;20050;-76
2023/06/20 11:17:56;;;;;;;6.50;5.40;;;;;;;25.66;44.44;101174.47;4995868;28;20038;-77
2023/06/20 11:20:25;;;;;;;5.85;5.22;;;;;;;25.57;44.96;101168.56;4996101;28;20046;-75
2023/06/20 11:22:55;;;;;;;7.18;5.70;;;;;;;25.69;44.27;101173.28;4974585;28;20045;-75
2023/06/20 11:25:22;;;;;;;5.90;4.95;;;;;;;25.68;44.35;101174.31;4994142;28;20034;-75
2023/06/20 11:27:48;;;;;;;7.63;5.15;;;;;;;25.69;44.36;101159.94;4992216;28;20072;-77